aviador You're here:

KMVY Decoded Metar

MARTHAS VINEYARD in MA, USA
Report Time2017-11-20 20:53:00
UTC Time2017-11-20 21:17:19
Flight Rules vfr VFR
Wind280° at 09 Gusting to 21 kt
W.Decomp.*RWY 33: 7.4 kt HW 5.2 kt LCW
RWY 24: 5.2 kt HW 7.4 kt RCW
W.Rank280° ranks 9
Current wind is above 280° avg. (8.1)
Visibility9999 m
Phenomena:N/A
Clouds:Few 060 Hf
Expected CloudBase > 4,800 ft AGL from Temp-Dew spread
CeilingNone
Temp05°C (ISA -10)
Dew Point-7°C (42% RH)
AAT-1.0°C
QNH1016 hPa
Density Alt-1,194 ft
Elevation52 ft
Report Wrong Elevation
Raw Report
METAR KMVY 202053Z 28009G21KT 10SM FEW060 05/M07 A2999 RMK AO2 SLP154
T00501067 53014=

Extra information for KMVY:More info

Metar Taf Metar & Taf Last 4 Metars F.Rules Stats Wind Profile Meteogram Temp Stats Airport Information Weather charts Add Link Nearby VenuesMetar ALERT Operation Metar Decoded Social comments

AIRNAV info for KMVY